sensor_id;sensor_type;location;lat;lon;timestamp;P1;durP1;ratioP1;P2;durP2;ratioP2
21501;SDS011;27639;48.674;9.242;2022-12-20T00:00:44;46.08;;;29.65;;
21501;SDS011;27639;48.674;9.242;2022-12-20T00:03:10;38.33;;;26.15;;
21501;SDS011;27639;48.674;9.242;2022-12-20T00:05:36;41.72;;;27.80;;
21501;SDS011;27639;48.674;9.242;2022-12-20T00:08:02;38.65;;;26.23;;
21501;SDS011;27639;48.674;9.242;2022-12-20T00:10:28;40.25;;;26.27;;
21501;SDS011;27639;48.674;9.242;2022-12-20T00:12:53;41.28;;;27.50;;
21501;SDS011;27639;48.674;9.242;2022-12-20T00:15:19;36.92;;;26.48;;
21501;SDS011;27639;48.674;9.242;2022-12-20T00:17:45;37.10;;;26.20;;
21501;SDS011;27639;48.674;9.242;2022-12-20T00:20:10;38.78;;;26.25;;
21501;SDS011;27639;48.674;9.242;2022-12-20T00:22:36;34.85;;;25.77;;
21501;SDS011;27639;48.674;9.242;2022-12-20T00:25:03;42.33;;;26.70;;
21501;SDS011;27639;48.674;9.242;2022-12-20T00:27:29;40.13;;;26.02;;
21501;SDS011;27639;48.674;9.242;2022-12-20T00:29:54;42.42;;;26.38;;
21501;SDS011;27639;48.674;9.242;2022-12-20T00:32:20;37.03;;;25.90;;
21501;SDS011;27639;48.674;9.242;2022-12-20T00:34:46;41.28;;;26.88;;
21501;SDS011;27639;48.674;9.242;2022-12-20T00:37:11;41.95;;;27.45;;
21501;SDS011;27639;48.674;9.242;2022-12-20T00:39:37;41.92;;;27.55;;
21501;SDS011;27639;48.674;9.242;2022-12-20T00:42:02;46.10;;;28.23;;
21501;SDS011;27639;48.674;9.242;2022-12-20T00:44:28;42.30;;;28.63;;
21501;SDS011;27639;48.674;9.242;2022-12-20T00:46:53;44.70;;;28.63;;
21501;SDS011;27639;48.674;9.242;2022-12-20T00:49:19;45.28;;;29.50;;
21501;SDS011;27639;48.674;9.242;2022-12-20T00:51:45;43.65;;;29.90;;
21501;SDS011;27639;48.674;9.242;2022-12-20T00:54:10;42.85;;;28.95;;
21501;SDS011;27639;48.674;9.242;2022-12-20T00:56:36;45.63;;;29.02;;
21501;SDS011;27639;48.674;9.242;2022-12-20T00:59:01;49.00;;;29.25;;
21501;SDS011;27639;48.674;9.242;2022-12-20T01:01:28;48.88;;;29.92;;
21501;SDS011;27639;48.674;9.242;2022-12-20T01:03:55;43.95;;;29.00;;
21501;SDS011;27639;48.674;9.242;2022-12-20T01:06:21;45.08;;;30.48;;
21501;SDS011;27639;48.674;9.242;2022-12-20T01:08:47;43.17;;;29.92;;
21501;SDS011;27639;48.674;9.242;2022-12-20T01:11:15;46.00;;;29.27;;
21501;SDS011;27639;48.674;9.242;2022-12-20T01:13:43;46.20;;;29.02;;
21501;SDS011;27639;48.674;9.242;2022-12-20T01:18:36;36.95;;;26.10;;
21501;SDS011;27639;48.674;9.242;2022-12-20T01:21:03;38.63;;;25.40;;
21501;SDS011;27639;48.674;9.242;2022-12-20T01:23:30;37.97;;;27.45;;
21501;SDS011;27639;48.674;9.242;2022-12-20T01:25:57;43.13;;;27.80;;
21501;SDS011;27639;48.674;9.242;2022-12-20T01:28:23;37.53;;;25.63;;
21501;SDS011;27639;48.674;9.242;2022-12-20T01:30:49;40.67;;;26.95;;
21501;SDS011;27639;48.674;9.242;2022-12-20T01:33:14;36.70;;;25.80;;
21501;SDS011;27639;48.674;9.242;2022-12-20T01:35:40;37.92;;;25.20;;
21501;SDS011;27639;48.674;9.242;2022-12-20T01:38:05;39.58;;;26.15;;
21501;SDS011;27639;48.674;9.242;2022-12-20T01:40:31;34.92;;;25.65;;
21501;SDS011;27639;48.674;9.242;2022-12-20T01:42:57;39.03;;;27.10;;
21501;SDS011;27639;48.674;9.242;2022-12-20T01:45:27;43.38;;;26.70;;
21501;SDS011;27639;48.674;9.242;2022-12-20T01:47:54;38.90;;;26.10;;
21501;SDS011;27639;48.674;9.242;2022-12-20T01:50:21;37.58;;;26.23;;
21501;SDS011;27639;48.674;9.242;2022-12-20T01:52:47;38.08;;;26.30;;
21501;SDS011;27639;48.674;9.242;2022-12-20T01:55:17;38.58;;;26.23;;
21501;SDS011;27639;48.674;9.242;2022-12-20T01:57:48;39.92;;;26.92;;
21501;SDS011;27639;48.674;9.242;2022-12-20T02:00:26;41.92;;;27.42;;
21501;SDS011;27639;48.674;9.242;2022-12-20T02:02:52;36.45;;;25.55;;
21501;SDS011;27639;48.674;9.242;2022-12-20T02:05:20;40.35;;;25.60;;
21501;SDS011;27639;48.674;9.242;2022-12-20T02:07:47;40.85;;;26.83;;
21501;SDS011;27639;48.674;9.242;2022-12-20T02:10:16;37.25;;;24.83;;
21501;SDS011;27639;48.674;9.242;2022-12-20T02:12:45;39.97;;;25.63;;
21501;SDS011;27639;48.674;9.242;2022-12-20T02:15:24;38.60;;;26.02;;
21501;SDS011;27639;48.674;9.242;2022-12-20T02:23:59;37.08;;;24.40;;
21501;SDS011;27639;48.674;9.242;2022-12-20T02:26:37;38.78;;;26.08;;
21501;SDS011;27639;48.674;9.242;2022-12-20T02:29:25;40.45;;;26.95;;
21501;SDS011;27639;48.674;9.242;2022-12-20T02:32:24;37.80;;;24.30;;
21501;SDS011;27639;48.674;9.242;2022-12-20T02:34:53;38.17;;;25.20;;
21501;SDS011;27639;48.674;9.242;2022-12-20T02:37:19;37.78;;;25.58;;
21501;SDS011;27639;48.674;9.242;2022-12-20T02:39:45;37.35;;;25.80;;
21501;SDS011;27639;48.674;9.242;2022-12-20T02:42:12;38.47;;;26.67;;
21501;SDS011;27639;48.674;9.242;2022-12-20T02:44:55;40.33;;;25.30;;
21501;SDS011;27639;48.674;9.242;2022-12-20T02:47:57;35.97;;;25.25;;
21501;SDS011;27639;48.674;9.242;2022-12-20T02:50:39;37.25;;;25.52;;
21501;SDS011;27639;48.674;9.242;2022-12-20T02:53:10;35.40;;;24.70;;
21501;SDS011;27639;48.674;9.242;2022-12-20T02:58:28;39.88;;;25.27;;
21501;SDS011;27639;48.674;9.242;2022-12-20T03:00:58;37.67;;;25.20;;
21501;SDS011;27639;48.674;9.242;2022-12-20T03:03:30;37.60;;;25.30;;
21501;SDS011;27639;48.674;9.242;2022-12-20T03:05:56;35.95;;;24.95;;
21501;SDS011;27639;48.674;9.242;2022-12-20T03:08:22;37.13;;;24.85;;
21501;SDS011;27639;48.674;9.242;2022-12-20T03:10:48;38.53;;;25.63;;
21501;SDS011;27639;48.674;9.242;2022-12-20T03:13:16;35.75;;;25.02;;
21501;SDS011;27639;48.674;9.242;2022-12-20T03:15:42;35.90;;;25.65;;
21501;SDS011;27639;48.674;9.242;2022-12-20T03:18:07;37.83;;;23.65;;
21501;SDS011;27639;48.674;9.242;2022-12-20T03:20:33;33.05;;;23.75;;
21501;SDS011;27639;48.674;9.242;2022-12-20T03:22:59;35.40;;;25.13;;
21501;SDS011;27639;48.674;9.242;2022-12-20T03:25:24;36.05;;;24.48;;
21501;SDS011;27639;48.674;9.242;2022-12-20T03:27:50;35.88;;;23.40;;
21501;SDS011;27639;48.674;9.242;2022-12-20T03:30:16;36.45;;;24.77;;
21501;SDS011;27639;48.674;9.242;2022-12-20T03:32:41;35.92;;;24.45;;
21501;SDS011;27639;48.674;9.242;2022-12-20T03:35:07;37.65;;;25.20;;
21501;SDS011;27639;48.674;9.242;2022-12-20T03:37:34;38.45;;;24.33;;
21501;SDS011;27639;48.674;9.242;2022-12-20T03:40:00;36.75;;;25.13;;
21501;SDS011;27639;48.674;9.242;2022-12-20T03:42:26;35.38;;;23.95;;
21501;SDS011;27639;48.674;9.242;2022-12-20T03:44:51;38.38;;;24.67;;
21501;SDS011;27639;48.674;9.242;2022-12-20T03:47:17;37.30;;;25.35;;
21501;SDS011;27639;48.674;9.242;2022-12-20T03:49:43;36.88;;;24.77;;
21501;SDS011;27639;48.674;9.242;2022-12-20T03:52:12;37.38;;;24.17;;
21501;SDS011;27639;48.674;9.242;2022-12-20T03:54:38;36.25;;;25.05;;
21501;SDS011;27639;48.674;9.242;2022-12-20T03:57:03;36.53;;;25.10;;
21501;SDS011;27639;48.674;9.242;2022-12-20T03:59:29;36.95;;;25.60;;
21501;SDS011;27639;48.674;9.242;2022-12-20T04:01:55;36.85;;;24.90;;
21501;SDS011;27639;48.674;9.242;2022-12-20T04:04:20;33.55;;;24.05;;
21501;SDS011;27639;48.674;9.242;2022-12-20T04:06:46;36.42;;;25.70;;
21501;SDS011;27639;48.674;9.242;2022-12-20T04:09:12;36.13;;;25.08;;
21501;SDS011;27639;48.674;9.242;2022-12-20T04:11:38;35.72;;;23.80;;
21501;SDS011;27639;48.674;9.242;2022-12-20T04:14:03;35.95;;;24.52;;
21501;SDS011;27639;48.674;9.242;2022-12-20T04:16:30;38.67;;;24.95;;
21501;SDS011;27639;48.674;9.242;2022-12-20T04:18:56;35.75;;;24.63;;
21501;SDS011;27639;48.674;9.242;2022-12-20T04:21:25;35.65;;;24.35;;
21501;SDS011;27639;48.674;9.242;2022-12-20T04:23:53;35.88;;;23.83;;
21501;SDS011;27639;48.674;9.242;2022-12-20T04:26:19;33.28;;;25.23;;
21501;SDS011;27639;48.674;9.242;2022-12-20T04:28:45;37.50;;;25.70;;
21501;SDS011;27639;48.674;9.242;2022-12-20T04:31:11;39.25;;;26.85;;
21501;SDS011;27639;48.674;9.242;2022-12-20T04:33:36;42.60;;;28.05;;
21501;SDS011;27639;48.674;9.242;2022-12-20T04:36:02;41.28;;;26.77;;
21501;SDS011;27639;48.674;9.242;2022-12-20T04:38:28;38.03;;;25.80;;
21501;SDS011;27639;48.674;9.242;2022-12-20T04:40:54;37.63;;;24.60;;
21501;SDS011;27639;48.674;9.242;2022-12-20T04:43:20;33.60;;;23.85;;
21501;SDS011;27639;48.674;9.242;2022-12-20T04:45:46;32.90;;;22.73;;
21501;SDS011;27639;48.674;9.242;2022-12-20T04:48:14;33.05;;;23.60;;
21501;SDS011;27639;48.674;9.242;2022-12-20T04:50:40;35.47;;;23.00;;
21501;SDS011;27639;48.674;9.242;2022-12-20T04:53:05;34.92;;;23.15;;
21501;SDS011;27639;48.674;9.242;2022-12-20T04:55:50;35.83;;;23.80;;
21501;SDS011;27639;48.674;9.242;2022-12-20T04:58:15;37.88;;;25.67;;
21501;SDS011;27639;48.674;9.242;2022-12-20T05:00:41;34.78;;;23.05;;
21501;SDS011;27639;48.674;9.242;2022-12-20T05:03:06;32.33;;;22.95;;
21501;SDS011;27639;48.674;9.242;2022-12-20T05:05:32;32.15;;;23.02;;
21501;SDS011;27639;48.674;9.242;2022-12-20T05:07:58;35.63;;;23.67;;
21501;SDS011;27639;48.674;9.242;2022-12-20T05:10:24;36.30;;;23.60;;
21501;SDS011;27639;48.674;9.242;2022-12-20T05:12:49;32.78;;;22.75;;
21501;SDS011;27639;48.674;9.242;2022-12-20T05:15:15;33.47;;;23.33;;
21501;SDS011;27639;48.674;9.242;2022-12-20T05:17:40;34.28;;;23.00;;
21501;SDS011;27639;48.674;9.242;2022-12-20T05:20:06;32.70;;;22.98;;
21501;SDS011;27639;48.674;9.242;2022-12-20T05:22:32;31.65;;;22.55;;
21501;SDS011;27639;48.674;9.242;2022-12-20T05:25:16;32.42;;;22.52;;
21501;SDS011;27639;48.674;9.242;2022-12-20T05:28:01;36.65;;;24.73;;
21501;SDS011;27639;48.674;9.242;2022-12-20T05:30:26;34.80;;;24.63;;
21501;SDS011;27639;48.674;9.242;2022-12-20T05:32:52;37.50;;;24.67;;
21501;SDS011;27639;48.674;9.242;2022-12-20T05:35:18;35.97;;;25.10;;
21501;SDS011;27639;48.674;9.242;2022-12-20T05:37:44;36.25;;;24.02;;
21501;SDS011;27639;48.674;9.242;2022-12-20T05:40:10;34.22;;;23.80;;
21501;SDS011;27639;48.674;9.242;2022-12-20T05:42:36;36.50;;;24.48;;
21501;SDS011;27639;48.674;9.242;2022-12-20T05:45:02;34.70;;;24.13;;
21501;SDS011;27639;48.674;9.242;2022-12-20T05:47:29;36.63;;;25.33;;
21501;SDS011;27639;48.674;9.242;2022-12-20T05:49:58;34.97;;;23.45;;
21501;SDS011;27639;48.674;9.242;2022-12-20T05:52:24;34.90;;;24.27;;
21501;SDS011;27639;48.674;9.242;2022-12-20T05:54:49;38.00;;;26.30;;
21501;SDS011;27639;48.674;9.242;2022-12-20T05:57:15;32.28;;;23.02;;
21501;SDS011;27639;48.674;9.242;2022-12-20T05:59:41;32.05;;;23.90;;
21501;SDS011;27639;48.674;9.242;2022-12-20T06:02:07;34.30;;;24.15;;
21501;SDS011;27639;48.674;9.242;2022-12-20T06:04:34;35.05;;;24.13;;
21501;SDS011;27639;48.674;9.242;2022-12-20T06:07:02;32.63;;;23.00;;
21501;SDS011;27639;48.674;9.242;2022-12-20T06:09:29;35.30;;;23.58;;
21501;SDS011;27639;48.674;9.242;2022-12-20T06:11:54;38.00;;;24.42;;
21501;SDS011;27639;48.674;9.242;2022-12-20T06:14:20;30.30;;;22.58;;
21501;SDS011;27639;48.674;9.242;2022-12-20T06:16:46;30.67;;;23.27;;
21501;SDS011;27639;48.674;9.242;2022-12-20T06:19:11;30.45;;;21.90;;
21501;SDS011;27639;48.674;9.242;2022-12-20T06:21:39;33.90;;;23.92;;
21501;SDS011;27639;48.674;9.242;2022-12-20T06:24:05;31.55;;;23.45;;
21501;SDS011;27639;48.674;9.242;2022-12-20T06:26:31;33.15;;;22.33;;
21501;SDS011;27639;48.674;9.242;2022-12-20T06:29:00;32.70;;;22.92;;
21501;SDS011;27639;48.674;9.242;2022-12-20T06:31:27;35.83;;;24.92;;
21501;SDS011;27639;48.674;9.242;2022-12-20T06:33:52;33.38;;;23.60;;
21501;SDS011;27639;48.674;9.242;2022-12-20T06:36:18;33.72;;;21.95;;
21501;SDS011;27639;48.674;9.242;2022-12-20T06:38:44;32.42;;;21.92;;
21501;SDS011;27639;48.674;9.242;2022-12-20T06:41:09;35.00;;;23.00;;
21501;SDS011;27639;48.674;9.242;2022-12-20T06:43:35;31.85;;;22.55;;
21501;SDS011;27639;48.674;9.242;2022-12-20T06:46:00;33.25;;;23.02;;
21501;SDS011;27639;48.674;9.242;2022-12-20T06:48:26;35.05;;;24.05;;
21501;SDS011;27639;48.674;9.242;2022-12-20T06:50:51;34.40;;;24.98;;
21501;SDS011;27639;48.674;9.242;2022-12-20T06:53:17;36.65;;;25.50;;
21501;SDS011;27639;48.674;9.242;2022-12-20T06:55:43;34.05;;;25.65;;
21501;SDS011;27639;48.674;9.242;2022-12-20T06:58:11;35.42;;;23.60;;
21501;SDS011;27639;48.674;9.242;2022-12-20T07:00:37;35.95;;;24.40;;
21501;SDS011;27639;48.674;9.242;2022-12-20T07:03:03;38.88;;;26.20;;
21501;SDS011;27639;48.674;9.242;2022-12-20T07:05:28;34.85;;;25.15;;
21501;SDS011;27639;48.674;9.242;2022-12-20T07:07:54;35.17;;;25.17;;
21501;SDS011;27639;48.674;9.242;2022-12-20T07:10:19;33.45;;;24.15;;
21501;SDS011;27639;48.674;9.242;2022-12-20T07:12:45;34.25;;;23.23;;
21501;SDS011;27639;48.674;9.242;2022-12-20T07:15:11;34.42;;;23.45;;
21501;SDS011;27639;48.674;9.242;2022-12-20T07:17:37;34.65;;;23.23;;
21501;SDS011;27639;48.674;9.242;2022-12-20T07:20:02;36.05;;;24.63;;
21501;SDS011;27639;48.674;9.242;2022-12-20T07:22:28;31.30;;;23.23;;
21501;SDS011;27639;48.674;9.242;2022-12-20T07:24:54;31.60;;;23.10;;
21501;SDS011;27639;48.674;9.242;2022-12-20T07:27:20;37.83;;;24.67;;
21501;SDS011;27639;48.674;9.242;2022-12-20T07:29:45;36.83;;;23.75;;
21501;SDS011;27639;48.674;9.242;2022-12-20T07:32:11;35.42;;;23.88;;
21501;SDS011;27639;48.674;9.242;2022-12-20T07:34:38;40.67;;;25.85;;
21501;SDS011;27639;48.674;9.242;2022-12-20T07:37:03;35.33;;;24.42;;
21501;SDS011;27639;48.674;9.242;2022-12-20T07:39:29;34.40;;;24.02;;
21501;SDS011;27639;48.674;9.242;2022-12-20T07:41:55;33.70;;;23.05;;
21501;SDS011;27639;48.674;9.242;2022-12-20T07:44:21;33.72;;;24.38;;
21501;SDS011;27639;48.674;9.242;2022-12-20T07:46:47;52.47;;;41.63;;
21501;SDS011;27639;48.674;9.242;2022-12-20T07:49:13;39.60;;;28.55;;
21501;SDS011;27639;48.674;9.242;2022-12-20T07:51:40;39.15;;;25.42;;
21501;SDS011;27639;48.674;9.242;2022-12-20T07:54:10;39.15;;;29.02;;
21501;SDS011;27639;48.674;9.242;2022-12-20T07:56:46;38.30;;;29.17;;
21501;SDS011;27639;48.674;9.242;2022-12-20T07:59:15;36.25;;;26.83;;
21501;SDS011;27639;48.674;9.242;2022-12-20T08:01:44;35.38;;;24.75;;
21501;SDS011;27639;48.674;9.242;2022-12-20T08:04:12;32.72;;;24.63;;
21501;SDS011;27639;48.674;9.242;2022-12-20T08:06:43;33.97;;;23.45;;
21501;SDS011;27639;48.674;9.242;2022-12-20T08:09:10;31.25;;;23.40;;
21501;SDS011;27639;48.674;9.242;2022-12-20T08:11:38;35.38;;;24.42;;
21501;SDS011;27639;48.674;9.242;2022-12-20T08:14:07;32.33;;;23.55;;
21501;SDS011;27639;48.674;9.242;2022-12-20T08:16:33;35.70;;;24.38;;
21501;SDS011;27639;48.674;9.242;2022-12-20T08:18:59;35.28;;;23.67;;
21501;SDS011;27639;48.674;9.242;2022-12-20T08:21:25;34.13;;;23.25;;
21501;SDS011;27639;48.674;9.242;2022-12-20T08:23:50;34.05;;;24.27;;
21501;SDS011;27639;48.674;9.242;2022-12-20T08:26:16;38.85;;;28.50;;
21501;SDS011;27639;48.674;9.242;2022-12-20T08:28:42;63.67;;;42.22;;
21501;SDS011;27639;48.674;9.242;2022-12-20T08:31:08;46.33;;;32.35;;
21501;SDS011;27639;48.674;9.242;2022-12-20T08:33:34;37.83;;;27.27;;
21501;SDS011;27639;48.674;9.242;2022-12-20T08:36:02;36.00;;;25.27;;
21501;SDS011;27639;48.674;9.242;2022-12-20T08:38:30;28.65;;;21.75;;
21501;SDS011;27639;48.674;9.242;2022-12-20T08:41:03;29.08;;;21.42;;
21501;SDS011;27639;48.674;9.242;2022-12-20T08:45:56;32.10;;;22.13;;
21501;SDS011;27639;48.674;9.242;2022-12-20T08:48:22;33.75;;;22.10;;
21501;SDS011;27639;48.674;9.242;2022-12-20T08:50:53;28.45;;;21.40;;
21501;SDS011;27639;48.674;9.242;2022-12-20T08:53:22;34.80;;;22.95;;
21501;SDS011;27639;48.674;9.242;2022-12-20T08:55:48;35.58;;;23.33;;
21501;SDS011;27639;48.674;9.242;2022-12-20T08:58:14;30.98;;;21.40;;
21501;SDS011;27639;48.674;9.242;2022-12-20T09:00:40;31.02;;;21.23;;
21501;SDS011;27639;48.674;9.242;2022-12-20T09:03:06;30.95;;;21.73;;
21501;SDS011;27639;48.674;9.242;2022-12-20T09:05:32;34.88;;;23.70;;
21501;SDS011;27639;48.674;9.242;2022-12-20T09:07:57;30.02;;;21.33;;
21501;SDS011;27639;48.674;9.242;2022-12-20T09:10:23;29.25;;;20.90;;
21501;SDS011;27639;48.674;9.242;2022-12-20T09:12:49;29.20;;;21.55;;
21501;SDS011;27639;48.674;9.242;2022-12-20T09:15:14;29.30;;;21.00;;
21501;SDS011;27639;48.674;9.242;2022-12-20T09:17:40;28.85;;;21.30;;
21501;SDS011;27639;48.674;9.242;2022-12-20T09:20:05;26.73;;;20.23;;
21501;SDS011;27639;48.674;9.242;2022-12-20T09:22:31;31.58;;;23.17;;
21501;SDS011;27639;48.674;9.242;2022-12-20T09:24:57;34.88;;;23.80;;
21501;SDS011;27639;48.674;9.242;2022-12-20T09:27:23;31.90;;;22.10;;
21501;SDS011;27639;48.674;9.242;2022-12-20T09:29:48;29.80;;;21.50;;
21501;SDS011;27639;48.674;9.242;2022-12-20T09:32:14;31.67;;;21.77;;
21501;SDS011;27639;48.674;9.242;2022-12-20T09:34:39;29.15;;;20.92;;
21501;SDS011;27639;48.674;9.242;2022-12-20T09:37:05;32.28;;;20.85;;
21501;SDS011;27639;48.674;9.242;2022-12-20T09:39:30;25.60;;;19.10;;
21501;SDS011;27639;48.674;9.242;2022-12-20T09:41:56;26.83;;;20.73;;
21501;SDS011;27639;48.674;9.242;2022-12-20T09:44:29;29.15;;;20.73;;
21501;SDS011;27639;48.674;9.242;2022-12-20T09:47:00;31.98;;;21.63;;
21501;SDS011;27639;48.674;9.242;2022-12-20T09:49:30;26.65;;;20.58;;
21501;SDS011;27639;48.674;9.242;2022-12-20T09:59:57;28.52;;;20.38;;
21501;SDS011;27639;48.674;9.242;2022-12-20T10:02:23;27.30;;;19.95;;
21501;SDS011;27639;48.674;9.242;2022-12-20T10:04:51;31.38;;;22.80;;
21501;SDS011;27639;48.674;9.242;2022-12-20T10:24:26;23.50;;;17.55;;
21501;SDS011;27639;48.674;9.242;2022-12-20T10:26:54;24.02;;;16.63;;
21501;SDS011;27639;48.674;9.242;2022-12-20T10:29:21;22.25;;;17.00;;
21501;SDS011;27639;48.674;9.242;2022-12-20T10:31:53;21.17;;;16.27;;
21501;SDS011;27639;48.674;9.242;2022-12-20T10:34:24;25.60;;;18.33;;
21501;SDS011;27639;48.674;9.242;2022-12-20T10:37:07;29.17;;;21.42;;
21501;SDS011;27639;48.674;9.242;2022-12-20T10:39:48;29.83;;;21.00;;
21501;SDS011;27639;48.674;9.242;2022-12-20T10:42:22;30.02;;;21.80;;
21501;SDS011;27639;48.674;9.242;2022-12-20T10:44:48;28.20;;;21.50;;
21501;SDS011;27639;48.674;9.242;2022-12-20T10:50:15;26.80;;;19.70;;
21501;SDS011;27639;48.674;9.242;2022-12-20T10:55:36;23.80;;;17.73;;
21501;SDS011;27639;48.674;9.242;2022-12-20T11:06:43;21.15;;;15.40;;
21501;SDS011;27639;48.674;9.242;2022-12-20T11:12:06;24.70;;;16.27;;
21501;SDS011;27639;48.674;9.242;2022-12-20T11:14:37;25.02;;;18.65;;
21501;SDS011;27639;48.674;9.242;2022-12-20T11:17:12;25.42;;;18.85;;
21501;SDS011;27639;48.674;9.242;2022-12-20T11:25:43;24.65;;;17.02;;
21501;SDS011;27639;48.674;9.242;2022-12-20T11:31:22;31.17;;;23.05;;
21501;SDS011;27639;48.674;9.242;2022-12-20T11:34:02;27.45;;;22.23;;
21501;SDS011;27639;48.674;9.242;2022-12-20T11:42:30;23.60;;;17.73;;
21501;SDS011;27639;48.674;9.242;2022-12-20T11:48:09;24.38;;;18.13;;
21501;SDS011;27639;48.674;9.242;2022-12-20T11:50:56;20.98;;;16.00;;
21501;SDS011;27639;48.674;9.242;2022-12-20T11:53:34;21.77;;;14.10;;
21501;SDS011;27639;48.674;9.242;2022-12-20T11:56:16;19.05;;;13.88;;
21501;SDS011;27639;48.674;9.242;2022-12-20T11:58:55;22.27;;;16.10;;
21501;SDS011;27639;48.674;9.242;2022-12-20T12:01:33;20.20;;;14.98;;
21501;SDS011;27639;48.674;9.242;2022-12-20T12:06:38;19.95;;;13.35;;
21501;SDS011;27639;48.674;9.242;2022-12-20T12:09:20;18.92;;;13.88;;
21501;SDS011;27639;48.674;9.242;2022-12-20T12:11:55;19.20;;;13.30;;
21501;SDS011;27639;48.674;9.242;2022-12-20T12:14:32;20.27;;;14.23;;
21501;SDS011;27639;48.674;9.242;2022-12-20T12:17:08;19.60;;;13.70;;
21501;SDS011;27639;48.674;9.242;2022-12-20T12:19:53;26.52;;;16.15;;
21501;SDS011;27639;48.674;9.242;2022-12-20T12:22:26;45.35;;;23.67;;
21501;SDS011;27639;48.674;9.242;2022-12-20T12:24:57;36.08;;;20.65;;
21501;SDS011;27639;48.674;9.242;2022-12-20T12:27:26;37.90;;;22.83;;
21501;SDS011;27639;48.674;9.242;2022-12-20T12:29:53;39.28;;;22.75;;
21501;SDS011;27639;48.674;9.242;2022-12-20T12:42:55;31.80;;;22.13;;
21501;SDS011;27639;48.674;9.242;2022-12-20T12:45:26;30.38;;;21.50;;
21501;SDS011;27639;48.674;9.242;2022-12-20T12:50:36;23.77;;;17.35;;
21501;SDS011;27639;48.674;9.242;2022-12-20T12:55:41;24.05;;;17.85;;
21501;SDS011;27639;48.674;9.242;2022-12-20T12:58:12;24.95;;;16.83;;
21501;SDS011;27639;48.674;9.242;2022-12-20T13:08:49;24.83;;;16.27;;
21501;SDS011;27639;48.674;9.242;2022-12-20T13:11:34;25.15;;;17.00;;
21501;SDS011;27639;48.674;9.242;2022-12-20T13:16:41;27.45;;;19.65;;
21501;SDS011;27639;48.674;9.242;2022-12-20T13:19:15;35.65;;;23.67;;
21501;SDS011;27639;48.674;9.242;2022-12-20T13:21:43;33.33;;;23.60;;
21501;SDS011;27639;48.674;9.242;2022-12-20T13:29:42;24.17;;;17.38;;
21501;SDS011;27639;48.674;9.242;2022-12-20T13:40:18;31.90;;;22.20;;
21501;SDS011;27639;48.674;9.242;2022-12-20T13:42:55;29.20;;;21.25;;
21501;SDS011;27639;48.674;9.242;2022-12-20T13:45:23;27.67;;;20.58;;
21501;SDS011;27639;48.674;9.242;2022-12-20T13:47:52;25.92;;;19.13;;
21501;SDS011;27639;48.674;9.242;2022-12-20T13:50:23;34.08;;;24.58;;
21501;SDS011;27639;48.674;9.242;2022-12-20T13:52:52;36.65;;;27.00;;
21501;SDS011;27639;48.674;9.242;2022-12-20T13:55:51;36.50;;;27.95;;
21501;SDS011;27639;48.674;9.242;2022-12-20T13:58:21;35.90;;;25.92;;
21501;SDS011;27639;48.674;9.242;2022-12-20T14:00:51;28.88;;;22.55;;
21501;SDS011;27639;48.674;9.242;2022-12-20T14:05:44;29.35;;;20.48;;
21501;SDS011;27639;48.674;9.242;2022-12-20T14:08:14;26.77;;;19.23;;
21501;SDS011;27639;48.674;9.242;2022-12-20T14:10:43;24.75;;;17.67;;
21501;SDS011;27639;48.674;9.242;2022-12-20T14:13:18;21.77;;;15.77;;
21501;SDS011;27639;48.674;9.242;2022-12-20T14:15:50;18.95;;;14.98;;
21501;SDS011;27639;48.674;9.242;2022-12-20T14:18:20;19.92;;;15.20;;
21501;SDS011;27639;48.674;9.242;2022-12-20T14:20:55;22.88;;;18.00;;
21501;SDS011;27639;48.674;9.242;2022-12-20T14:23:35;27.25;;;18.40;;
21501;SDS011;27639;48.674;9.242;2022-12-20T14:26:04;33.40;;;20.70;;
21501;SDS011;27639;48.674;9.242;2022-12-20T14:28:36;18.17;;;13.25;;
21501;SDS011;27639;48.674;9.242;2022-12-20T14:31:04;17.85;;;12.68;;
21501;SDS011;27639;48.674;9.242;2022-12-20T14:33:35;16.00;;;12.30;;
21501;SDS011;27639;48.674;9.242;2022-12-20T14:38:41;23.70;;;17.60;;
21501;SDS011;27639;48.674;9.242;2022-12-20T14:41:27;46.10;;;26.38;;
21501;SDS011;27639;48.674;9.242;2022-12-20T14:43:55;27.83;;;20.92;;
21501;SDS011;27639;48.674;9.242;2022-12-20T14:46:22;41.03;;;27.05;;
21501;SDS011;27639;48.674;9.242;2022-12-20T14:48:47;55.63;;;33.33;;
21501;SDS011;27639;48.674;9.242;2022-12-20T14:51:28;39.50;;;27.83;;
21501;SDS011;27639;48.674;9.242;2022-12-20T14:53:54;90.65;;;52.35;;
21501;SDS011;27639;48.674;9.242;2022-12-20T14:56:21;50.42;;;32.90;;
21501;SDS011;27639;48.674;9.242;2022-12-20T14:58:59;47.47;;;30.85;;
21501;SDS011;27639;48.674;9.242;2022-12-20T15:01:39;42.47;;;28.13;;
21501;SDS011;27639;48.674;9.242;2022-12-20T15:06:55;34.10;;;26.08;;
21501;SDS011;27639;48.674;9.242;2022-12-20T15:09:21;30.42;;;22.27;;
21501;SDS011;27639;48.674;9.242;2022-12-20T15:11:46;26.75;;;20.88;;
21501;SDS011;27639;48.674;9.242;2022-12-20T15:14:27;32.47;;;24.52;;
21501;SDS011;27639;48.674;9.242;2022-12-20T15:17:11;30.15;;;22.85;;
21501;SDS011;27639;48.674;9.242;2022-12-20T15:19:38;29.20;;;22.73;;
21501;SDS011;27639;48.674;9.242;2022-12-20T15:22:04;34.40;;;23.77;;
21501;SDS011;27639;48.674;9.242;2022-12-20T15:24:30;32.95;;;23.63;;
21501;SDS011;27639;48.674;9.242;2022-12-20T15:26:56;30.52;;;23.55;;
21501;SDS011;27639;48.674;9.242;2022-12-20T15:29:23;36.22;;;23.52;;
21501;SDS011;27639;48.674;9.242;2022-12-20T15:31:51;29.60;;;22.67;;
21501;SDS011;27639;48.674;9.242;2022-12-20T15:34:42;32.00;;;23.02;;
21501;SDS011;27639;48.674;9.242;2022-12-20T15:37:08;29.80;;;22.50;;
21501;SDS011;27639;48.674;9.242;2022-12-20T15:39:39;29.00;;;22.25;;
21501;SDS011;27639;48.674;9.242;2022-12-20T15:42:05;28.85;;;22.15;;
21501;SDS011;27639;48.674;9.242;2022-12-20T15:44:31;31.70;;;23.58;;
21501;SDS011;27639;48.674;9.242;2022-12-20T15:46:59;27.92;;;23.02;;
21501;SDS011;27639;48.674;9.242;2022-12-20T15:49:28;30.88;;;23.55;;
21501;SDS011;27639;48.674;9.242;2022-12-20T15:51:55;31.40;;;23.08;;
21501;SDS011;27639;48.674;9.242;2022-12-20T15:54:25;34.55;;;25.95;;
21501;SDS011;27639;48.674;9.242;2022-12-20T15:56:56;38.53;;;26.63;;
21501;SDS011;27639;48.674;9.242;2022-12-20T15:59:23;32.08;;;26.05;;
21501;SDS011;27639;48.674;9.242;2022-12-20T16:01:49;34.05;;;25.30;;
21501;SDS011;27639;48.674;9.242;2022-12-20T16:04:15;37.20;;;27.63;;
21501;SDS011;27639;48.674;9.242;2022-12-20T16:06:43;34.42;;;26.60;;
21501;SDS011;27639;48.674;9.242;2022-12-20T16:09:10;38.95;;;30.25;;
21501;SDS011;27639;48.674;9.242;2022-12-20T16:11:36;42.63;;;30.90;;
21501;SDS011;27639;48.674;9.242;2022-12-20T16:14:02;39.40;;;30.15;;
21501;SDS011;27639;48.674;9.242;2022-12-20T16:16:29;41.58;;;31.00;;
21501;SDS011;27639;48.674;9.242;2022-12-20T16:18:59;46.17;;;32.30;;
21501;SDS011;27639;48.674;9.242;2022-12-20T16:21:27;62.50;;;50.97;;
21501;SDS011;27639;48.674;9.242;2022-12-20T16:24:08;50.05;;;36.70;;
21501;SDS011;27639;48.674;9.242;2022-12-20T16:26:36;51.00;;;39.33;;
21501;SDS011;27639;48.674;9.242;2022-12-20T16:29:02;48.67;;;36.97;;
21501;SDS011;27639;48.674;9.242;2022-12-20T16:31:34;43.47;;;32.08;;
21501;SDS011;27639;48.674;9.242;2022-12-20T16:34:03;27.50;;;20.65;;